Time;durP1;ratioP1;P1;durP2;ratioP2;P2;SDS_P1;SDS_P2;PMS_P1;PMS_P2;Temp;Humidity;BMP_temperature;BMP_pressure;BME280_temperature;BME280_humidity;BME280_pressure;Samples;Min_cycle;Max_cycle;Signal;HPM_P1;HPM_P2
2021/05/30 00:01:26;;;;;;;4.20;3.80;;;;;;;12.30;62.92;100805.11;125681;1101;103195;-85
2021/05/30 00:03:54;;;;;;;6.25;4.28;;;;;;;12.26;63.10;100797.20;125634;1096;102975;-86
2021/05/30 00:06:25;;;;;;;6.07;4.33;;;;;;;12.23;63.22;100792.81;125559;1101;103082;-86
2021/05/30 00:08:55;;;;;;;4.60;3.50;;;;;;;12.18;63.13;100794.73;125895;1101;102991;-86
2021/05/30 00:11:23;;;;;;;5.30;4.37;;;;;;;12.15;63.50;100801.03;126232;1096;103084;-87
2021/05/30 00:14:11;;;;;;;3.88;3.55;;;;;;;12.04;63.89;100797.78;126472;1101;103007;-84
2021/05/30 00:16:40;;;;;;;4.15;3.83;;;;;;;12.05;63.93;100807.55;126421;1096;103066;-85
2021/05/30 00:19:21;;;;;;;4.20;3.83;;;;;;;12.04;63.71;100803.98;125096;1101;103182;-85
2021/05/30 00:21:49;;;;;;;4.10;3.60;;;;;;;12.06;63.83;100805.74;125748;1101;103071;-85
2021/05/30 00:24:16;;;;;;;3.83;3.40;;;;;;;12.00;63.87;100802.31;125286;1101;103204;-87
2021/05/30 00:26:57;;;;;;;5.38;4.40;;;;;;;11.96;64.28;100810.45;125129;1096;103183;-88
2021/05/30 00:29:25;;;;;;;5.37;4.07;;;;;;;11.97;64.38;100807.73;125294;1101;103093;-85
2021/05/30 00:31:53;;;;;;;6.23;4.08;;;;;;;12.00;64.44;100810.32;125360;1101;103057;-85
2021/05/30 00:34:21;;;;;;;4.78;4.28;;;;;;;11.97;64.40;100807.73;125575;1096;103142;-85
2021/05/30 00:36:49;;;;;;;4.23;3.90;;;;;;;11.97;64.69;100805.07;125681;1101;103058;-86
2021/05/30 00:39:17;;;;;;;5.43;4.87;;;;;;;11.95;64.68;100811.36;125656;1101;103195;-87
2021/05/30 00:41:44;;;;;;;5.50;3.95;;;;;;;11.96;64.84;100811.31;126162;1101;103109;-87
2021/05/30 00:44:31;;;;;;;4.30;3.20;;;;;;;11.95;64.83;100812.23;126407;1101;103096;-87
2021/05/30 00:46:59;;;;;;;6.87;4.20;;;;;;;11.97;64.50;100809.52;126631;1101;103156;-87
2021/05/30 00:49:28;;;;;;;4.33;3.90;;;;;;;12.00;64.47;100806.78;125225;1094;103134;-86
2021/05/30 00:51:56;;;;;;;6.18;4.13;;;;;;;11.97;64.73;100812.18;125600;1101;103067;-86
2021/05/30 00:54:25;;;;;;;4.20;3.30;;;;;;;11.98;64.50;100811.27;125620;1101;103219;-84
2021/05/30 00:56:53;;;;;;;5.25;3.63;;;;;;;11.99;64.55;100810.36;125341;1101;103211;-88
2021/05/30 00:59:20;;;;;;;4.80;3.90;;;;;;;11.94;65.06;100812.23;125669;1101;103053;-90
2021/05/30 01:01:48;;;;;;;4.00;3.60;;;;;;;11.88;64.95;100810.61;125657;1096;102972;-84
2021/05/30 01:04:16;;;;;;;4.55;4.00;;;;;;;11.84;65.09;100809.80;125607;1096;102893;-86
2021/05/30 01:06:44;;;;;;;5.30;3.17;;;;;;;11.88;65.31;100808.80;125455;1102;103116;-86
2021/05/30 01:09:13;;;;;;;4.53;3.37;;;;;;;11.86;65.16;100805.31;125605;1096;103862;-86
2021/05/30 01:11:46;;;;;;;3.83;3.03;;;;;;;11.88;65.01;100802.59;125654;1101;103058;-88
2021/05/30 01:14:14;;;;;;;3.30;3.00;;;;;;;11.92;64.80;100808.75;125807;1101;103888;-87
2021/05/30 01:16:42;;;;;;;3.67;3.37;;;;;;;11.92;65.08;100806.94;125663;1101;103179;-85
2021/05/30 01:19:11;;;;;;;4.30;3.50;;;;;;;11.92;64.82;100804.27;125575;1096;103057;-88
2021/05/30 01:21:54;;;;;;;3.40;2.43;;;;;;;11.94;64.72;100805.13;125650;1101;103179;-86
2021/05/30 01:24:22;;;;;;;3.27;2.97;;;;;;;11.92;64.80;100803.41;126414;1101;103209;-85
2021/05/30 01:26:50;;;;;;;3.85;3.10;;;;;;;11.85;64.66;100803.55;125629;1096;103044;-85
2021/05/30 01:29:17;;;;;;;4.10;3.57;;;;;;;11.86;64.77;100805.31;125655;1101;103544;-89
2021/05/30 01:31:45;;;;;;;2.73;2.50;;;;;;;11.87;64.95;100806.17;125563;1101;103805;-84
2021/05/30 01:34:12;;;;;;;4.40;3.13;;;;;;;11.84;64.96;100806.27;125743;1096;103551;-87
2021/05/30 01:36:40;;;;;;;4.70;3.25;;;;;;;11.80;64.97;100807.26;125649;1096;103122;-83
2021/05/30 01:39:08;;;;;;;3.50;3.20;;;;;;;11.74;65.13;100808.27;125666;1101;103059;-90
2021/05/30 01:41:35;;;;;;;3.75;3.35;;;;;;;11.75;65.06;100807.36;125666;1101;103055;-88
2021/05/30 01:44:04;;;;;;;3.65;3.00;;;;;;;11.79;64.96;100816.17;125658;1096;102971;-86
2021/05/30 01:46:31;;;;;;;4.55;3.48;;;;;;;11.78;65.10;100809.97;125767;1101;102985;-84
2021/05/30 01:48:59;;;;;;;3.28;2.80;;;;;;;11.79;65.06;100806.36;125646;1096;103051;-90
2021/05/30 01:51:27;;;;;;;3.10;2.90;;;;;;;11.79;64.91;100809.03;125425;1102;103009;-86
2021/05/30 01:54:05;;;;;;;3.07;2.83;;;;;;;11.80;64.81;100813.46;125613;1101;103137;-86
2021/05/30 01:59:22;;;;;;;4.40;2.87;;;;;;;11.80;65.13;100812.59;125279;1103;103096;-84
2021/05/30 02:01:51;;;;;;;5.75;3.50;;;;;;;11.78;65.04;100814.41;125793;1101;103067;-87
2021/05/30 02:04:21;;;;;;;4.25;3.20;;;;;;;11.72;65.22;100818.11;125647;1101;103252;-89
2021/05/30 02:06:49;;;;;;;2.55;2.35;;;;;;;11.70;65.47;100820.83;125258;1101;103054;-90
2021/05/30 02:09:17;;;;;;;3.73;3.03;;;;;;;11.67;65.90;100817.34;125537;1096;103123;-84
2021/05/30 02:11:45;;;;;;;2.88;2.68;;;;;;;11.61;65.99;100815.70;125596;1101;103034;-90
2021/05/30 02:14:13;;;;;;;2.80;2.40;;;;;;;11.62;66.33;100811.23;125739;1101;103069;-88
2021/05/30 02:16:43;;;;;;;3.03;2.70;;;;;;;11.61;66.82;100813.04;125773;1101;103066;-86
2021/05/30 02:19:10;;;;;;;3.65;2.53;;;;;;;11.59;67.84;100817.52;125778;1096;103058;-88
2021/05/30 02:21:51;;;;;;;4.30;2.73;;;;;;;11.59;68.17;100811.33;125707;1101;103613;-94
2021/05/30 02:24:21;;;;;;;2.93;2.67;;;;;;;11.61;68.26;100814.81;125715;1096;103077;-90
2021/05/30 02:26:49;;;;;;;2.90;2.70;;;;;;;11.57;68.04;100813.13;125765;1101;103515;-94
2021/05/30 02:29:38;;;;;;;2.23;2.00;;;;;;;11.56;68.76;100816.74;125713;1096;103099;-92
2021/05/30 02:32:07;;;;;;;4.33;3.20;;;;;;;11.56;68.82;100822.94;125576;1101;102970;-87
2021/05/30 02:34:35;;;;;;;3.73;3.43;;;;;;;11.56;69.04;100822.94;125653;1101;103193;-85
2021/05/30 02:37:03;;;;;;;3.40;3.10;;;;;;;11.57;68.57;100822.03;127045;1101;103151;-88
2021/05/30 02:39:32;;;;;;;3.90;2.53;;;;;;;11.60;69.12;100816.62;127497;1101;102673;-92
2021/05/30 02:41:59;;;;;;;4.73;2.93;;;;;;;11.60;68.77;100823.75;126437;1101;103960;-85
2021/05/30 02:44:27;;;;;;;2.50;2.30;;;;;;;11.58;68.91;100830.90;125272;1101;103052;-89
2021/05/30 02:46:54;;;;;;;2.83;2.48;;;;;;;11.59;68.87;100830.86;124953;1104;103096;-89
2021/05/30 02:49:26;;;;;;;2.85;2.50;;;;;;;11.57;68.80;100826.47;125481;1096;103325;-93
2021/05/30 02:51:54;;;;;;;2.73;2.53;;;;;;;11.56;69.71;100825.61;125729;1101;102996;-89
2021/05/30 02:54:35;;;;;;;2.63;2.43;;;;;;;11.56;69.53;100830.08;125757;1101;103050;-93
2021/05/30 02:57:04;;;;;;;2.40;2.20;;;;;;;11.49;69.22;100832.88;125746;1097;103102;-93
2021/05/30 02:59:31;;;;;;;4.18;2.48;;;;;;;11.50;69.33;100839.08;125594;1101;103106;-93
2021/05/30 03:01:59;;;;;;;3.65;2.45;;;;;;;11.52;69.51;100840.80;125758;1096;103234;-91
2021/05/30 03:04:28;;;;;;;5.30;2.33;;;;;;;11.50;69.14;100844.41;125705;1096;103113;-87
2021/05/30 03:06:55;;;;;;;2.63;2.43;;;;;;;11.53;69.03;100845.23;125730;1096;103141;-92
2021/05/30 03:09:23;;;;;;;2.20;2.00;;;;;;;11.59;69.13;100841.53;125384;1104;103561;-87
2021/05/30 03:11:51;;;;;;;2.90;2.20;;;;;;;11.58;68.81;100850.44;125457;1101;103084;-90
2021/05/30 03:14:19;;;;;;;3.00;2.70;;;;;;;11.60;69.17;100845.96;125780;1101;103115;-91
2021/05/30 03:17:00;;;;;;;2.38;2.18;;;;;;;11.57;68.99;100858.48;125362;1104;103783;-87
2021/05/30 03:19:27;;;;;;;3.43;2.83;;;;;;;11.54;69.36;100852.33;125338;1105;103176;-88
2021/05/30 03:21:55;;;;;;;3.17;2.73;;;;;;;11.52;69.28;100855.94;125453;1101;103096;-89
2021/05/30 03:24:22;;;;;;;3.30;2.60;;;;;;;11.53;69.54;100853.23;125645;1101;102955;-91
2021/05/30 03:26:51;;;;;;;4.50;2.27;;;;;;;11.57;68.99;100856.72;125338;1096;103200;-93
2021/05/30 03:29:18;;;;;;;3.63;2.40;;;;;;;11.60;69.00;100851.30;125270;1101;103237;-89
2021/05/30 03:31:46;;;;;;;4.50;2.27;;;;;;;11.62;68.71;100848.59;125342;1096;103058;-87
2021/05/30 03:34:14;;;;;;;2.87;2.63;;;;;;;11.62;68.76;100851.25;125471;1096;103110;-88
2021/05/30 03:36:45;;;;;;;5.10;2.23;;;;;;;11.61;68.96;100852.16;125556;1101;102970;-90
2021/05/30 03:39:12;;;;;;;3.20;2.50;;;;;;;11.63;68.79;100848.55;125618;1097;103182;-88
2021/05/30 03:41:41;;;;;;;4.05;3.45;;;;;;;11.66;68.74;100847.59;125695;1101;103386;-91
2021/05/30 03:44:10;;;;;;;4.85;2.60;;;;;;;11.65;69.11;100848.50;125760;1101;103083;-86
2021/05/30 03:46:37;;;;;;;3.67;3.00;;;;;;;11.58;68.86;100853.11;125720;1101;103208;-93
2021/05/30 03:49:19;;;;;;;2.48;2.25;;;;;;;11.59;68.64;100849.53;125349;1104;103199;-88
2021/05/30 03:51:46;;;;;;;3.33;2.73;;;;;;;11.62;68.32;100851.25;125381;1100;104007;-88
2021/05/30 03:54:14;;;;;;;3.43;3.07;;;;;;;11.66;68.57;100852.94;125495;1100;103242;-89
2021/05/30 03:56:48;;;;;;;2.53;2.33;;;;;;;11.64;68.48;100855.64;124958;1099;103838;-92
2021/05/30 03:59:16;;;;;;;4.08;2.80;;;;;;;11.66;68.52;100856.50;125243;1104;103333;-92
2021/05/30 04:01:43;;;;;;;2.93;2.70;;;;;;;11.67;68.51;100854.70;125340;1104;103177;-91
2021/05/30 04:04:11;;;;;;;3.73;2.40;;;;;;;11.65;68.26;100856.51;125157;1104;103329;-91
2021/05/30 04:06:39;;;;;;;5.35;3.60;;;;;;;11.66;68.53;100853.83;125452;1104;103081;-95
2021/05/30 04:09:07;;;;;;;3.13;2.83;;;;;;;11.65;68.53;100849.41;125374;1104;103208;-89
2021/05/30 04:11:34;;;;;;;3.97;3.57;;;;;;;11.71;68.35;100851.04;125380;1104;102976;-93
2021/05/30 04:14:02;;;;;;;3.65;3.35;;;;;;;11.75;68.44;100851.85;125330;1104;103218;-88
2021/05/30 04:16:31;;;;;;;3.30;2.73;;;;;;;11.79;68.42;100854.39;125383;1105;103243;-89
2021/05/30 04:18:58;;;;;;;3.65;3.35;;;;;;;11.83;68.14;100850.73;125324;1104;103333;-88
2021/05/30 04:21:26;;;;;;;5.07;3.70;;;;;;;11.92;68.25;100849.64;125263;1105;103141;-88
2021/05/30 04:23:53;;;;;;;3.20;2.53;;;;;;;11.98;68.23;100859.32;125219;1104;103582;-87
2021/05/30 04:26:21;;;;;;;3.33;2.70;;;;;;;12.03;67.89;100860.09;125100;1102;104484;-88
2021/05/30 04:29:02;;;;;;;2.73;2.50;;;;;;;12.10;67.78;100856.37;125270;1100;103101;-89
2021/05/30 04:31:43;;;;;;;3.40;2.80;;;;;;;12.12;67.32;100859.86;125895;1107;103074;-85
2021/05/30 04:34:25;;;;;;;4.98;3.35;;;;;;;12.10;67.36;100858.14;126669;1108;101473;-89
2021/05/30 04:36:53;;;;;;;3.03;2.73;;;;;;;12.15;67.30;100858.91;125690;1108;103061;-91
2021/05/30 04:39:20;;;;;;;3.68;2.73;;;;;;;12.17;67.54;100859.76;124566;1107;103195;-85
2021/05/30 04:41:48;;;;;;;3.10;2.90;;;;;;;12.14;67.30;100859.81;124770;1107;103311;-85
2021/05/30 04:44:15;;;;;;;7.07;3.60;;;;;;;12.14;67.47;100866.05;124914;1103;101940;-91
2021/05/30 04:46:43;;;;;;;3.13;2.87;;;;;;;12.16;67.48;100864.20;125161;1104;103128;-87
2021/05/30 04:49:10;;;;;;;3.33;3.03;;;;;;;12.22;67.06;100863.16;124896;1107;103283;-95
2021/05/30 04:51:38;;;;;;;2.80;2.60;;;;;;;12.28;67.30;100868.35;124821;1107;102967;-88
2021/05/30 04:54:05;;;;;;;4.03;3.10;;;;;;;12.30;67.21;100861.19;124851;1103;103087;-94
2021/05/30 04:56:34;;;;;;;5.57;3.10;;;;;;;12.31;67.13;100862.05;124604;1101;103240;-86
2021/05/30 04:59:02;;;;;;;3.25;2.95;;;;;;;12.35;66.91;100866.40;124809;1107;103039;-86
2021/05/30 05:01:30;;;;;;;2.93;2.73;;;;;;;12.33;67.08;100865.58;124906;1103;103161;-83
2021/05/30 05:03:58;;;;;;;4.18;3.18;;;;;;;12.36;67.05;100870.83;124825;1101;103190;-92
2021/05/30 05:06:25;;;;;;;4.43;3.73;;;;;;;12.40;66.80;100864.48;125036;1099;102017;-85
2021/05/30 05:08:53;;;;;;;4.23;2.87;;;;;;;12.45;67.15;100862.58;125366;1101;103814;-87
2021/05/30 05:11:21;;;;;;;2.63;2.43;;;;;;;12.50;66.83;100860.66;125415;1102;103083;-92
2021/05/30 05:13:48;;;;;;;2.93;2.73;;;;;;;12.53;66.69;100863.24;125674;1096;103080;-85
2021/05/30 05:16:30;;;;;;;4.35;2.68;;;;;;;12.57;66.41;100865.81;125288;1104;103767;-87
2021/05/30 05:18:59;;;;;;;3.80;3.50;;;;;;;12.63;66.75;100866.53;125203;1099;103265;-88
2021/05/30 05:21:27;;;;;;;3.50;2.90;;;;;;;12.66;66.73;100870.91;125485;1101;103235;-86
2021/05/30 05:23:54;;;;;;;4.23;3.05;;;;;;;12.70;66.77;100868.13;125601;1096;103049;-88
2021/05/30 05:26:26;;;;;;;3.20;2.90;;;;;;;12.71;66.75;100872.56;125647;1101;103002;-86
2021/05/30 05:29:07;;;;;;;2.95;2.65;;;;;;;12.76;66.43;100869.75;125401;1102;103144;-86
2021/05/30 05:31:34;;;;;;;3.90;3.20;;;;;;;12.82;66.76;100876.71;125705;1101;103786;-88
2021/05/30 05:34:02;;;;;;;3.20;2.90;;;;;;;12.88;66.57;100868.53;125440;1096;103071;-85
2021/05/30 05:36:30;;;;;;;3.20;2.80;;;;;;;12.97;66.28;100880.73;125662;1101;102961;-91
2021/05/30 05:38:58;;;;;;;4.25;3.28;;;;;;;12.97;66.22;100873.61;125625;1101;103087;-88
2021/05/30 05:41:25;;;;;;;3.50;3.05;;;;;;;13.03;66.33;100865.43;125566;1095;103051;-86
2021/05/30 05:43:52;;;;;;;3.00;2.63;;;;;;;13.10;65.94;100870.58;125392;1101;103055;-88
2021/05/30 05:46:20;;;;;;;3.68;3.38;;;;;;;13.11;65.95;100866.98;125192;1102;103135;-91
2021/05/30 05:48:47;;;;;;;3.30;2.80;;;;;;;13.11;65.64;100870.52;125619;1101;103174;-85
2021/05/30 05:51:15;;;;;;;4.08;3.68;;;;;;;13.10;65.69;100874.15;125367;1102;103693;-86
2021/05/30 05:53:42;;;;;;;4.20;3.37;;;;;;;13.10;65.81;100876.83;125624;1096;103155;-87
2021/05/30 05:56:10;;;;;;;3.23;2.73;;;;;;;13.12;65.82;100885.66;125533;1101;103049;-87
2021/05/30 05:58:38;;;;;;;3.70;3.38;;;;;;;13.14;65.64;100877.59;125292;1102;103091;-87
2021/05/30 06:01:05;;;;;;;3.43;3.00;;;;;;;13.17;65.78;100881.05;125541;1096;103094;-88
2021/05/30 06:03:33;;;;;;;3.30;3.10;;;;;;;13.20;65.47;100882.77;125540;1096;103086;-88
2021/05/30 06:06:02;;;;;;;3.40;3.10;;;;;;;13.24;65.66;100878.22;125431;1101;103100;-94
2021/05/30 06:08:43;;;;;;;4.20;3.57;;;;;;;13.25;65.50;100885.29;125168;1099;103170;-85
2021/05/30 06:11:10;;;;;;;4.67;3.40;;;;;;;13.29;65.16;100890.52;125336;1104;103294;-88
2021/05/30 06:13:38;;;;;;;4.40;3.53;;;;;;;13.42;65.33;100898.20;125282;1104;103116;-87
2021/05/30 06:16:06;;;;;;;3.50;3.20;;;;;;;13.49;65.23;100889.09;125289;1104;103256;-86
2021/05/30 06:18:35;;;;;;;4.78;3.63;;;;;;;13.58;64.93;100887.91;125329;1104;103237;-88
2021/05/30 06:21:02;;;;;;;4.37;3.73;;;;;;;13.58;65.07;100890.58;125366;1105;103174;-91
2021/05/30 06:23:29;;;;;;;5.18;3.68;;;;;;;13.54;65.21;100896.04;125277;1100;103187;-84
2021/05/30 06:26:15;;;;;;;4.63;3.27;;;;;;;13.63;64.88;100897.53;125630;1108;103275;-89
2021/05/30 06:28:56;;;;;;;5.93;3.13;;;;;;;13.71;64.72;100902.66;126905;1107;103187;-94
2021/05/30 06:31:24;;;;;;;3.48;3.18;;;;;;;13.79;64.67;100899.75;126174;1100;103195;-87
2021/05/30 06:33:51;;;;;;;4.80;3.65;;;;;;;13.86;64.39;100899.51;124508;1108;103227;-88
2021/05/30 06:36:19;;;;;;;3.80;3.50;;;;;;;13.87;64.34;100908.41;124884;1107;103400;-91
2021/05/30 06:39:00;;;;;;;5.18;3.75;;;;;;;13.98;64.20;100897.34;125005;1107;103001;-89
2021/05/30 06:41:27;;;;;;;4.97;3.83;;;;;;;14.07;64.02;100902.41;124940;1107;103237;-84
2021/05/30 06:43:56;;;;;;;3.57;3.10;;;;;;;14.17;63.66;100903.86;124921;1108;103181;-92
2021/05/30 06:46:24;;;;;;;5.63;3.13;;;;;;;14.28;63.65;100898.14;125094;1104;102987;-88
2021/05/30 06:48:52;;;;;;;4.93;3.73;;;;;;;14.34;63.29;100894.36;125150;1098;103352;-87
2021/05/30 06:51:22;;;;;;;3.70;3.10;;;;;;;14.40;63.10;100898.66;124932;1099;103542;-87
2021/05/30 06:53:50;;;;;;;2.97;2.73;;;;;;;14.48;62.94;100896.59;124914;1104;103087;-90
2021/05/30 06:56:20;;;;;;;4.47;3.20;;;;;;;14.55;62.59;100898.11;124974;1105;103178;-94
2021/05/30 06:58:48;;;;;;;5.65;3.60;;;;;;;14.57;62.36;100893.59;125235;1099;103247;-90
2021/05/30 07:01:21;;;;;;;3.53;3.23;;;;;;;14.67;62.12;100895.02;125344;1104;103711;-86
2021/05/30 07:03:50;;;;;;;4.85;3.30;;;;;;;14.83;62.29;100892.67;125520;1101;104719;-87
2021/05/30 07:06:19;;;;;;;3.73;3.43;;;;;;;14.94;62.01;100892.31;125811;1101;102991;-86
2021/05/30 07:08:46;;;;;;;3.48;3.05;;;;;;;15.08;61.79;100886.42;125360;1096;103027;-88
2021/05/30 07:11:14;;;;;;;4.67;3.10;;;;;;;15.19;61.15;100894.95;125683;1096;103062;-86
2021/05/30 07:13:41;;;;;;;4.80;3.13;;;;;;;15.22;60.94;100883.20;125659;1101;103494;-87
2021/05/30 07:16:09;;;;;;;3.48;3.18;;;;;;;15.30;60.74;100886.50;125602;1096;103032;-85
2021/05/30 07:18:50;;;;;;;3.75;3.38;;;;;;;15.41;60.46;100888.77;125667;1101;103050;-92
2021/05/30 07:21:17;;;;;;;3.53;3.23;;;;;;;15.39;60.19;100887.94;125575;1101;103410;-92
2021/05/30 07:23:45;;;;;;;4.18;3.78;;;;;;;15.36;59.95;100883.55;125273;1104;103105;-91
2021/05/30 07:26:37;;;;;;;4.63;3.45;;;;;;;15.26;60.17;100889.34;125618;1101;103109;-86
2021/05/30 07:29:04;;;;;;;3.80;3.33;;;;;;;15.27;60.76;100891.95;125447;1101;103062;-89
2021/05/30 07:31:48;;;;;;;3.05;2.75;;;;;;;15.35;60.11;100883.63;124567;1100;103254;-84
2021/05/30 07:34:15;;;;;;;3.53;2.93;;;;;;;15.37;60.27;100887.14;125467;1104;103274;-89
2021/05/30 07:36:43;;;;;;;3.63;3.07;;;;;;;15.48;60.72;100889.41;125624;1096;103091;-90
2021/05/30 07:39:11;;;;;;;2.70;2.35;;;;;;;15.60;60.08;100880.86;125563;1104;103056;-84
2021/05/30 07:41:39;;;;;;;2.45;2.25;;;;;;;15.70;59.39;100887.62;125540;1101;103231;-89
2021/05/30 07:44:07;;;;;;;3.37;3.10;;;;;;;15.69;58.49;100890.37;125668;1101;103403;-91
2021/05/30 07:46:34;;;;;;;3.45;2.78;;;;;;;15.76;58.75;100885.63;125637;1101;103085;-91
2021/05/30 07:49:02;;;;;;;3.88;3.43;;;;;;;15.78;58.24;100887.31;125621;1101;103117;-82
2021/05/30 07:51:30;;;;;;;3.07;2.87;;;;;;;15.87;57.89;100888.77;125816;1101;102991;-92
2021/05/30 07:53:58;;;;;;;3.53;3.20;;;;;;;15.95;57.82;100892.02;125860;1101;103153;-81
2021/05/30 07:56:27;;;;;;;3.25;2.95;;;;;;;15.97;57.54;100892.84;125762;1101;103170;-85
2021/05/30 07:58:55;;;;;;;5.57;3.27;;;;;;;16.01;57.50;100893.59;125748;1096;103456;-85
2021/05/30 08:01:22;;;;;;;5.33;3.20;;;;;;;16.04;57.15;100888.09;125503;1101;103133;-88
2021/05/30 08:03:50;;;;;;;4.60;2.78;;;;;;;16.13;56.50;100887.70;125775;1096;103014;-86
2021/05/30 08:06:18;;;;;;;5.70;3.60;;;;;;;16.23;56.91;100888.19;125668;1101;103227;-89
2021/05/30 08:08:45;;;;;;;3.25;2.95;;;;;;;16.30;56.90;100892.38;125596;1101;103875;-86
2021/05/30 08:11:13;;;;;;;3.17;2.63;;;;;;;16.44;56.67;100893.61;125663;1096;103665;-90
2021/05/30 08:13:40;;;;;;;3.83;3.30;;;;;;;16.49;56.24;100891.59;125712;1101;102982;-91
2021/05/30 08:16:08;;;;;;;4.90;2.90;;;;;;;16.60;54.82;100901.88;125659;1101;103834;-85
2021/05/30 08:18:35;;;;;;;4.83;2.57;;;;;;;16.66;54.97;100893.52;125554;1101;104757;-83
2021/05/30 08:21:03;;;;;;;2.67;2.47;;;;;;;16.79;55.13;100886.66;125870;1101;103069;-85
2021/05/30 08:23:30;;;;;;;3.40;3.10;;;;;;;16.95;55.04;100891.41;126273;1101;103058;-85
2021/05/30 08:25:58;;;;;;;3.17;2.87;;;;;;;17.14;55.29;100894.12;126693;1101;103084;-83
2021/05/30 08:28:25;;;;;;;4.50;2.60;;;;;;;17.35;53.71;100892.25;125098;1101;103111;-88
2021/05/30 08:31:07;;;;;;;3.35;2.80;;;;;;;17.62;53.28;100894.59;125388;1104;103143;-90
2021/05/30 08:33:34;;;;;;;3.45;2.70;;;;;;;17.63;52.63;100897.20;125459;1099;103356;-86
2021/05/30 08:36:04;;;;;;;5.40;3.40;;;;;;;17.74;52.74;100890.43;125415;1105;103127;-86
2021/05/30 08:38:31;;;;;;;3.13;2.60;;;;;;;17.67;51.50;100895.24;125381;1104;103211;-89
2021/05/30 08:40:59;;;;;;;4.08;2.73;;;;;;;17.61;51.50;100898.25;125458;1105;103214;-88
2021/05/30 08:43:41;;;;;;;4.03;3.25;;;;;;;17.58;52.04;100892.98;125464;1104;102970;-90
2021/05/30 08:46:08;;;;;;;3.20;2.80;;;;;;;17.54;52.83;100893.14;125386;1104;103387;-90
2021/05/30 08:48:36;;;;;;;2.83;2.60;;;;;;;17.80;52.94;100890.14;125533;1099;103959;-87
2021/05/30 08:51:06;;;;;;;4.75;2.58;;;;;;;17.92;51.53;100889.56;125854;1104;103262;-87
2021/05/30 08:53:36;;;;;;;2.73;2.53;;;;;;;17.98;50.82;100893.77;126018;1104;103154;-81
2021/05/30 08:56:05;;;;;;;3.78;3.18;;;;;;;18.11;50.36;100892.21;126201;1104;103047;-81
2021/05/30 08:58:42;;;;;;;3.73;2.80;;;;;;;18.00;49.26;100892.75;125149;1100;103230;-84
2021/05/30 09:01:12;;;;;;;3.50;2.28;;;;;;;17.92;48.57;100894.95;125143;1098;105173;-87
2021/05/30 09:04:04;;;;;;;2.15;1.95;;;;;;;17.76;48.79;100889.41;124932;1104;103052;-90
2021/05/30 09:06:33;;;;;;;2.57;2.17;;;;;;;17.64;48.84;100887.31;125133;1104;103163;-85
2021/05/30 09:09:01;;;;;;;2.93;2.68;;;;;;;17.64;48.74;100888.18;125152;1101;103158;-84
2021/05/30 09:11:48;;;;;;;3.10;2.60;;;;;;;17.72;48.97;100895.89;125374;1101;103074;-86
2021/05/30 09:14:23;;;;;;;2.77;2.13;;;;;;;18.19;49.10;100891.83;125373;1101;103708;-86
2021/05/30 09:16:59;;;;;;;7.93;2.97;;;;;;;18.74;48.11;100882.73;125272;1104;103116;-83
2021/05/30 09:19:47;;;;;;;3.63;2.23;;;;;;;18.94;47.06;100880.81;125541;1101;103083;-86
2021/05/30 09:22:15;;;;;;;4.50;2.80;;;;;;;18.94;46.56;100875.41;125450;1096;103149;-85
2021/05/30 09:25:08;;;;;;;2.93;2.10;;;;;;;18.81;46.41;100884.14;125355;1101;103093;-91
2021/05/30 09:27:41;;;;;;;2.73;2.07;;;;;;;18.69;46.02;100887.50;125464;1096;103158;-90
2021/05/30 09:30:13;;;;;;;4.53;2.55;;;;;;;18.62;45.59;100886.05;125547;1096;104091;-86
2021/05/30 09:33:03;;;;;;;2.80;2.53;;;;;;;18.54;46.75;100887.34;125633;1101;103169;-90
2021/05/30 09:35:51;;;;;;;2.45;1.98;;;;;;;18.63;45.45;100885.11;125831;1101;103953;-86
2021/05/30 09:38:37;;;;;;;3.00;1.93;;;;;;;19.23;44.69;100881.93;125620;1101;103910;-84
2021/05/30 09:41:10;;;;;;;2.53;2.30;;;;;;;19.18;44.75;100887.59;125608;1096;103021;-87
2021/05/30 09:43:50;;;;;;;2.30;2.10;;;;;;;19.00;45.43;100885.89;125270;1101;103168;-89
2021/05/30 09:46:33;;;;;;;2.50;2.30;;;;;;;18.96;45.51;100882.48;125610;1101;103381;-78
2021/05/30 09:49:02;;;;;;;5.43;1.90;;;;;;;18.92;45.32;100885.44;125130;1096;103087;-85
2021/05/30 09:51:44;;;;;;;2.57;2.20;;;;;;;18.86;46.13;100887.47;125385;1104;103158;-84
2021/05/30 09:54:14;;;;;;;3.13;2.03;;;;;;;18.73;46.12;100891.78;125216;1100;103181;-83
2021/05/30 09:56:52;;;;;;;4.45;2.60;;;;;;;18.51;46.17;100886.63;125259;1104;103186;-84
2021/05/30 09:59:22;;;;;;;2.90;2.25;;;;;;;18.32;47.72;100897.48;125318;1104;103055;-82
2021/05/30 10:02:00;;;;;;;3.30;2.37;;;;;;;18.13;47.67;100901.11;125633;1104;103078;-85
2021/05/30 10:04:35;;;;;;;2.40;1.68;;;;;;;17.93;46.42;100907.49;125456;1104;103323;-87
2021/05/30 10:07:05;;;;;;;3.28;1.85;;;;;;;17.79;46.88;100900.03;125255;1104;103118;-86
2021/05/30 10:09:32;;;;;;;2.35;2.15;;;;;;;17.74;47.95;100898.52;125161;1104;103304;-81
2021/05/30 10:12:00;;;;;;;2.63;2.43;;;;;;;17.70;47.70;100898.67;124812;1104;103084;-86
2021/05/30 10:14:52;;;;;;;3.00;2.60;;;;;;;17.62;47.69;100908.05;125255;1104;103231;-83
2021/05/30 10:17:20;;;;;;;4.50;2.40;;;;;;;17.63;47.01;100899.03;125616;1104;103047;-86
2021/05/30 10:19:50;;;;;;;2.65;2.10;;;;;;;17.59;47.60;100898.30;126479;1098;103189;-86
2021/05/30 10:22:18;;;;;;;3.60;2.10;;;;;;;17.60;48.37;100899.19;124834;1104;103398;-80
2021/05/30 10:24:46;;;;;;;4.33;2.30;;;;;;;17.58;48.90;100901.06;124303;1105;103387;-82
2021/05/30 10:27:23;;;;;;;8.20;2.70;;;;;;;17.64;48.48;100900.78;125254;1104;103159;-84
2021/05/30 10:30:15;;;;;;;2.63;2.38;;;;;;;17.60;48.32;100899.19;125486;1101;103155;-82
2021/05/30 10:33:18;;;;;;;3.00;2.70;;;;;;;17.63;47.90;100902.59;124885;1101;103142;-82
2021/05/30 10:36:11;;;;;;;3.00;2.13;;;;;;;17.61;47.95;100911.72;125405;1099;102973;-83
2021/05/30 10:38:43;;;;;;;4.78;2.28;;;;;;;17.59;47.13;100922.53;125141;1104;103222;-83
2021/05/30 10:41:23;;;;;;;2.23;1.68;;;;;;;17.59;46.96;100911.77;125009;1104;103293;-82
2021/05/30 10:43:51;;;;;;;2.30;2.10;;;;;;;17.63;46.57;100907.11;124502;1104;103084;-89
2021/05/30 10:46:19;;;;;;;3.43;2.20;;;;;;;17.69;47.20;100904.14;125122;1104;103244;-78
2021/05/30 10:49:08;;;;;;;6.03;2.30;;;;;;;17.80;47.32;100911.70;124554;1098;103208;-85
2021/05/30 10:51:45;;;;;;;2.65;1.98;;;;;;;17.91;46.57;100912.03;125106;1100;103181;-84
2021/05/30 10:54:14;;;;;;;1.88;1.60;;;;;;;18.04;44.50;100910.52;124915;1104;103243;-83
2021/05/30 10:56:56;;;;;;;2.13;1.80;;;;;;;18.18;43.41;100907.15;124703;1104;103066;-79
2021/05/30 10:59:26;;;;;;;3.13;1.90;;;;;;;18.36;42.63;100910.72;124747;1098;103446;-82
2021/05/30 11:01:56;;;;;;;1.60;1.30;;;;;;;18.50;42.50;100912.73;125204;1104;103069;-84
2021/05/30 11:04:30;;;;;;;1.80;1.70;;;;;;;18.60;41.59;100917.66;125539;1104;103148;-87
2021/05/30 11:07:04;;;;;;;1.47;1.37;;;;;;;18.64;40.55;100914.70;125591;1101;103076;-84
2021/05/30 11:09:57;;;;;;;3.45;1.50;;;;;;;18.66;42.28;100915.51;125327;1102;103323;-83
2021/05/30 11:12:34;;;;;;;4.27;2.10;;;;;;;18.63;42.55;100912.09;125772;1101;103158;-86
2021/05/30 11:15:08;;;;;;;3.50;1.93;;;;;;;18.65;42.47;100920.99;125422;1101;103059;-80
2021/05/30 11:17:49;;;;;;;2.23;1.48;;;;;;;18.62;42.67;100915.73;124642;1101;103426;-82
2021/05/30 11:20:38;;;;;;;3.00;1.65;;;;;;;18.64;42.40;100914.70;124622;1096;103005;-80
2021/05/30 11:23:10;;;;;;;1.43;1.25;;;;;;;18.69;41.53;100915.34;125390;1096;103072;-86
2021/05/30 11:25:48;;;;;;;3.07;1.67;;;;;;;18.76;41.11;100915.03;124449;1102;103136;-80
2021/05/30 11:28:24;;;;;;;4.03;1.63;;;;;;;18.85;41.13;100910.02;125212;1101;103079;-78
2021/05/30 11:31:00;;;;;;;3.35;1.58;;;;;;;18.97;41.48;100908.52;124610;1101;103155;-83